Time;durP1;ratioP1;P1;durP2;ratioP2;P2;SDS_P1;SDS_P2;PMS_P1;PMS_P2;Temp;Humidity;BMP_temperature;BMP_pressure;BME280_temperature;BME280_humidity;BME280_pressure;Samples;Min_cycle;Max_cycle;Signal;HPM_P1;HPM_P2
2021/05/04 00:02:08;;;;;;;4.30;1.15;;;12.30;71.50;;;;;;5005686;28;20018;-91
2021/05/04 00:04:33;;;;;;;4.65;1.30;;;12.30;71.40;;;;;;5007407;28;20033;-92
2021/05/04 00:07:00;;;;;;;3.30;1.20;;;12.30;72.00;;;;;;5005363;28;20084;-90
2021/05/04 00:09:25;;;;;;;3.70;1.10;;;12.30;72.40;;;;;;5005327;28;20026;-89
2021/05/04 00:11:51;;;;;;;5.05;1.92;;;12.30;72.30;;;;;;5008985;28;20368;-89
2021/05/04 00:14:18;;;;;;;4.32;1.60;;;12.40;72.50;;;;;;5011915;28;20172;-90
2021/05/04 00:16:44;;;;;;;2.72;1.20;;;12.40;72.70;;;;;;5036956;28;20029;-90
2021/05/04 00:19:10;;;;;;;6.90;1.65;;;12.40;74.20;;;;;;5002970;28;20092;-89
2021/05/04 00:21:36;;;;;;;6.50;2.13;;;12.40;74.50;;;;;;5004267;28;20073;-89
2021/05/04 00:24:06;;;;;;;4.05;1.90;;;12.30;74.90;;;;;;4999294;28;20521;-92
2021/05/04 00:26:32;;;;;;;4.05;1.77;;;12.30;74.40;;;;;;5014415;28;20026;-89
2021/05/04 00:28:58;;;;;;;4.55;1.48;;;12.30;75.00;;;;;;5009822;28;20485;-92
2021/05/04 00:31:24;;;;;;;8.40;2.00;;;12.40;74.60;;;;;;5005635;28;20037;-90
2021/05/04 00:33:50;;;;;;;2.53;1.30;;;12.40;74.40;;;;;;5004791;28;20022;-90
2021/05/04 00:36:16;;;;;;;5.72;1.50;;;12.40;74.40;;;;;;5005560;28;20415;-89
2021/05/04 00:38:42;;;;;;;6.10;1.33;;;12.40;74.50;;;;;;5011052;28;20042;-90
2021/05/04 00:41:07;;;;;;;3.75;1.20;;;12.50;73.50;;;;;;5007237;28;20015;-89
2021/05/04 00:43:33;;;;;;;5.00;1.20;;;12.50;74.80;;;;;;4998989;28;20371;-88
2021/05/04 00:45:59;;;;;;;4.35;0.93;;;12.50;73.50;;;;;;5008356;28;20018;-92
2021/05/04 00:48:26;;;;;;;3.45;1.30;;;12.50;73.60;;;;;;5000599;28;20031;-89
2021/05/04 00:50:52;;;;;;;5.25;1.30;;;12.50;73.10;;;;;;4993116;28;20068;-92
2021/05/04 00:53:18;;;;;;;3.45;1.02;;;12.50;72.90;;;;;;5005895;28;20026;-94
2021/05/04 00:55:44;;;;;;;6.53;1.40;;;12.50;72.90;;;;;;5010497;28;20463;-91
2021/05/04 00:58:12;;;;;;;6.30;1.33;;;12.50;73.00;;;;;;5001609;28;20113;-90
2021/05/04 01:00:41;;;;;;;4.72;1.40;;;12.50;73.40;;;;;;5002411;28;20041;-91
2021/05/04 01:03:08;;;;;;;4.57;1.70;;;12.50;73.00;;;;;;5030509;28;20038;-90
2021/05/04 01:05:34;;;;;;;3.38;1.67;;;12.50;73.40;;;;;;4999839;28;20574;-91
2021/05/04 01:08:00;;;;;;;3.40;1.15;;;12.50;73.20;;;;;;5008707;28;20112;-90
2021/05/04 01:10:26;;;;;;;5.90;1.40;;;12.50;73.70;;;;;;5011920;28;20037;-88
2021/05/04 01:12:53;;;;;;;2.28;1.20;;;12.50;73.30;;;;;;5003964;28;20058;-90
2021/05/04 01:15:19;;;;;;;4.93;1.35;;;12.50;73.80;;;;;;5011168;28;20022;-89
2021/05/04 01:17:44;;;;;;;3.22;1.48;;;12.50;73.60;;;;;;4998644;28;20089;-90
2021/05/04 01:20:10;;;;;;;4.72;0.95;;;12.50;73.80;;;;;;5002806;28;20022;-89
2021/05/04 01:22:36;;;;;;;3.17;1.10;;;12.50;73.00;;;;;;5003071;28;20033;-93
2021/05/04 01:25:07;;;;;;;4.03;1.65;;;12.50;73.10;;;;;;5000437;28;20557;-89
2021/05/04 01:27:32;;;;;;;7.38;1.70;;;12.50;73.20;;;;;;4998841;28;20058;-91
2021/05/04 01:29:58;;;;;;;8.23;1.50;;;12.50;74.10;;;;;;5011224;28;20042;-91
2021/05/04 01:32:24;;;;;;;6.57;1.67;;;12.50;74.00;;;;;;4994212;28;20027;-90
2021/05/04 01:34:50;;;;;;;6.70;2.05;;;12.50;73.60;;;;;;5005503;28;20068;-90
2021/05/04 01:37:16;;;;;;;5.85;1.77;;;12.50;74.60;;;;;;5030203;28;20503;-89
2021/05/04 01:39:47;;;;;;;8.88;1.80;;;12.50;74.70;;;;;;5007215;28;20029;-91
2021/05/04 01:42:14;;;;;;;8.63;2.08;;;12.50;74.70;;;;;;5001709;28;20088;-89
2021/05/04 01:44:41;;;;;;;5.07;2.42;;;12.60;75.50;;;;;;5005868;28;20107;-88
2021/05/04 01:47:07;;;;;;;10.60;1.95;;;12.50;76.20;;;;;;5002043;28;20097;-91
2021/05/04 01:49:33;;;;;;;8.65;1.88;;;12.50;75.80;;;;;;5004310;28;20022;-89
2021/05/04 01:52:00;;;;;;;7.30;1.70;;;12.50;75.80;;;;;;4999460;28;20018;-91
2021/05/04 01:54:26;;;;;;;4.18;1.20;;;12.50;75.30;;;;;;5005462;28;20084;-91
2021/05/04 01:56:53;;;;;;;9.57;1.58;;;12.50;74.60;;;;;;5000468;28;20038;-88
2021/05/04 01:59:20;;;;;;;7.82;1.60;;;12.50;74.60;;;;;;4999962;28;20450;-91
2021/05/04 02:01:46;;;;;;;6.07;1.77;;;12.50;75.60;;;;;;5007323;28;20018;-89
2021/05/04 02:04:12;;;;;;;11.77;1.70;;;12.50;75.50;;;;;;5005349;28;20557;-90
2021/05/04 02:06:37;;;;;;;7.93;1.70;;;12.50;75.40;;;;;;5004084;28;20102;-93
2021/05/04 02:09:05;;;;;;;6.75;1.50;;;12.50;76.60;;;;;;5011409;28;20017;-89
2021/05/04 02:11:31;;;;;;;3.95;1.40;;;12.50;74.60;;;;;;5036472;28;20026;-90
2021/05/04 02:13:56;;;;;;;8.93;1.45;;;12.50;74.60;;;;;;4999859;28;20096;-89
2021/05/04 02:16:22;;;;;;;8.25;1.75;;;12.50;74.90;;;;;;4994997;28;20018;-90
2021/05/04 02:18:48;;;;;;;8.13;1.77;;;12.50;75.80;;;;;;5008954;28;20065;-89
2021/05/04 02:21:16;;;;;;;8.48;1.85;;;12.50;76.10;;;;;;5000107;28;20494;-91
2021/05/04 02:23:43;;;;;;;8.93;1.88;;;12.60;76.60;;;;;;4999828;28;20018;-89
2021/05/04 02:26:09;;;;;;;5.78;1.63;;;12.50;76.50;;;;;;5006577;28;20022;-89
2021/05/04 02:28:35;;;;;;;8.30;2.55;;;12.50;76.10;;;;;;4998435;28;20491;-90
2021/05/04 02:31:01;;;;;;;8.93;2.00;;;12.60;76.30;;;;;;5003046;28;20033;-89
2021/05/04 02:33:29;;;;;;;6.60;2.00;;;12.50;76.20;;;;;;4996883;28;20544;-92
2021/05/04 02:35:56;;;;;;;12.55;2.15;;;12.60;75.60;;;;;;5002181;28;20533;-92
2021/05/04 02:38:22;;;;;;;6.80;1.73;;;12.50;76.10;;;;;;4999228;28;20153;-90
2021/05/04 02:40:48;;;;;;;7.70;1.58;;;12.50;75.40;;;;;;5002932;28;20121;-90
2021/05/04 02:43:14;;;;;;;6.88;1.67;;;12.60;76.00;;;;;;4992691;28;20033;-90
2021/05/04 02:45:40;;;;;;;8.20;1.40;;;12.60;76.70;;;;;;5000089;28;20118;-89
2021/05/04 02:48:06;;;;;;;7.97;1.40;;;12.60;76.40;;;;;;4991318;28;20019;-90
2021/05/04 02:50:32;;;;;;;9.73;1.85;;;12.50;76.90;;;;;;4999041;28;20386;-89
2021/05/04 02:52:58;;;;;;;7.00;2.00;;;12.50;77.20;;;;;;4993209;28;20074;-89
2021/05/04 02:55:25;;;;;;;11.13;2.08;;;12.50;77.70;;;;;;5009398;28;20029;-90
2021/05/04 02:57:53;;;;;;;9.48;1.83;;;12.50;78.70;;;;;;4995781;28;20059;-89
2021/05/04 03:00:22;;;;;;;7.80;1.50;;;12.60;79.00;;;;;;5009241;28;20546;-89
2021/05/04 03:02:47;;;;;;;5.90;1.70;;;12.60;78.60;;;;;;4995548;28;20391;-89
2021/05/04 03:05:13;;;;;;;8.93;1.58;;;12.60;79.00;;;;;;5000859;28;20107;-90
2021/05/04 03:07:39;;;;;;;9.15;1.80;;;12.60;78.80;;;;;;4995576;28;20475;-90
2021/05/04 03:10:08;;;;;;;7.78;1.63;;;12.60;78.20;;;;;;4995227;28;20102;-90
2021/05/04 03:12:34;;;;;;;4.80;1.40;;;12.60;78.10;;;;;;5001491;28;20034;-92
2021/05/04 03:15:00;;;;;;;7.75;1.75;;;12.60;78.50;;;;;;5002245;28;20099;-91
2021/05/04 03:17:26;;;;;;;9.82;1.92;;;12.60;78.80;;;;;;4998724;28;20084;-90
2021/05/04 03:19:52;;;;;;;7.10;1.50;;;12.60;79.10;;;;;;5011774;28;20022;-90
2021/05/04 03:22:17;;;;;;;12.43;2.20;;;12.70;79.10;;;;;;5005848;28;20096;-88
2021/05/04 03:24:43;;;;;;;5.75;1.67;;;12.70;79.30;;;;;;5008180;28;20040;-91
2021/05/04 03:27:09;;;;;;;6.05;1.83;;;12.70;79.60;;;;;;5000046;28;20089;-94
2021/05/04 03:29:35;;;;;;;11.18;2.13;;;12.70;78.40;;;;;;5002841;28;20515;-89
2021/05/04 03:32:01;;;;;;;8.85;2.50;;;12.70;77.70;;;;;;4998930;28;20041;-89
2021/05/04 03:34:27;;;;;;;9.95;2.03;;;12.80;78.00;;;;;;5008555;28;20113;-92
2021/05/04 03:36:53;;;;;;;6.72;1.83;;;12.80;78.90;;;;;;5000674;28;20022;-90
2021/05/04 03:39:19;;;;;;;9.18;2.00;;;12.80;79.20;;;;;;4995526;28;20046;-92
2021/05/04 03:41:45;;;;;;;11.15;1.83;;;12.80;79.20;;;;;;5005499;28;20101;-90
2021/05/04 03:44:11;;;;;;;10.30;2.58;;;12.80;79.20;;;;;;4996347;28;20113;-89
2021/05/04 03:46:38;;;;;;;6.30;1.85;;;12.80;79.20;;;;;;4995234;28;20619;-92
2021/05/04 03:49:04;;;;;;;9.38;1.80;;;12.90;79.20;;;;;;4999874;28;20292;-91
2021/05/04 03:51:31;;;;;;;8.90;1.75;;;12.80;80.00;;;;;;5038892;28;20022;-90
2021/05/04 03:53:59;;;;;;;9.75;2.08;;;12.80;79.70;;;;;;4996451;28;20026;-91
2021/05/04 03:56:25;;;;;;;9.85;1.83;;;12.90;80.30;;;;;;5005119;28;20029;-91
2021/05/04 03:58:51;;;;;;;10.25;2.13;;;12.90;79.00;;;;;;4993194;28;20038;-90
2021/05/04 04:01:21;;;;;;;10.73;1.75;;;12.90;78.60;;;;;;5006121;28;20049;-90
2021/05/04 04:03:51;;;;;;;6.78;1.60;;;12.90;78.80;;;;;;4992979;28;20053;-90
2021/05/04 04:06:17;;;;;;;9.27;2.05;;;13.00;78.20;;;;;;5038399;28;20037;-90
2021/05/04 04:08:45;;;;;;;5.85;1.80;;;13.00;78.80;;;;;;5012134;28;20398;-90
2021/05/04 04:11:11;;;;;;;14.02;2.08;;;13.00;78.40;;;;;;5010385;28;20036;-90
2021/05/04 04:13:36;;;;;;;8.75;1.80;;;13.00;78.60;;;;;;4995505;28;20117;-89
2021/05/04 04:16:02;;;;;;;9.10;2.20;;;13.00;80.20;;;;;;5014005;28;20029;-90
2021/05/04 04:18:28;;;;;;;16.90;2.28;;;13.00;78.80;;;;;;4994538;28;20034;-92
2021/05/04 04:20:54;;;;;;;8.02;1.83;;;13.00;78.80;;;;;;5003739;28;20014;-93
2021/05/04 04:23:20;;;;;;;11.30;1.75;;;13.00;79.20;;;;;;5003672;28;20026;-92
2021/05/04 04:25:45;;;;;;;11.38;1.90;;;13.10;78.90;;;;;;5011088;28;20032;-90
2021/05/04 04:28:11;;;;;;;9.40;2.22;;;13.10;78.70;;;;;;4999863;28;20398;-90
2021/05/04 04:30:37;;;;;;;12.38;2.08;;;13.10;78.80;;;;;;5012418;28;20486;-89
2021/05/04 04:33:04;;;;;;;11.07;2.20;;;13.10;79.60;;;;;;5007877;28;20030;-90
2021/05/04 04:35:30;;;;;;;10.05;1.92;;;13.10;78.90;;;;;;5011457;28;20018;-90
2021/05/04 04:37:55;;;;;;;16.05;1.95;;;13.10;78.60;;;;;;5003796;28;20125;-89
2021/05/04 04:40:21;;;;;;;9.32;2.20;;;13.10;79.10;;;;;;5007695;28;20019;-89
2021/05/04 04:42:47;;;;;;;12.60;1.73;;;13.10;78.70;;;;;;5010809;28;20033;-90
2021/05/04 04:45:13;;;;;;;9.10;1.98;;;13.20;78.90;;;;;;5007615;28;20022;-90
2021/05/04 04:47:39;;;;;;;14.85;1.80;;;13.20;79.20;;;;;;5007206;28;20026;-90
2021/05/04 04:50:05;;;;;;;10.00;1.85;;;13.20;77.40;;;;;;5007004;28;20049;-92
2021/05/04 04:52:31;;;;;;;17.13;2.70;;;13.20;77.90;;;;;;5007811;28;20034;-91
2021/05/04 04:54:56;;;;;;;10.05;2.03;;;13.20;78.20;;;;;;5004387;28;20014;-91
2021/05/04 04:57:22;;;;;;;14.45;2.47;;;13.20;78.30;;;;;;5005765;28;20042;-93
2021/05/04 04:59:51;;;;;;;13.18;1.77;;;13.20;78.40;;;;;;5012393;28;20062;-90
2021/05/04 05:02:18;;;;;;;14.57;2.10;;;13.10;78.20;;;;;;5037883;28;20017;-92
2021/05/04 05:04:45;;;;;;;12.25;2.30;;;13.20;77.90;;;;;;5004226;28;20026;-91
2021/05/04 05:07:11;;;;;;;11.52;2.10;;;13.20;77.90;;;;;;5045721;28;20030;-92
2021/05/04 05:09:39;;;;;;;12.05;2.30;;;13.10;78.30;;;;;;5034873;28;20022;-91
2021/05/04 05:12:06;;;;;;;11.60;2.40;;;13.20;78.80;;;;;;5027653;28;20030;-92
2021/05/04 05:14:34;;;;;;;12.80;2.67;;;13.20;79.50;;;;;;5032578;28;20010;-93
2021/05/04 05:17:01;;;;;;;14.63;2.55;;;13.30;79.50;;;;;;5062793;28;20052;-90
2021/05/04 05:19:27;;;;;;;14.77;2.00;;;13.30;78.50;;;;;;5025756;28;20014;-91
2021/05/04 05:21:52;;;;;;;15.93;2.13;;;13.30;77.80;;;;;;5030148;28;20524;-91
2021/05/04 05:24:18;;;;;;;12.93;1.77;;;13.30;77.80;;;;;;5023549;28;20045;-92
2021/05/04 05:26:44;;;;;;;14.27;2.35;;;13.30;76.80;;;;;;5022810;28;20025;-91
2021/05/04 05:29:10;;;;;;;12.27;2.42;;;13.30;77.30;;;;;;5034409;28;20073;-89
2021/05/04 05:31:36;;;;;;;13.18;2.00;;;13.30;76.60;;;;;;5025452;28;20018;-90
2021/05/04 05:34:03;;;;;;;12.13;2.10;;;13.40;77.40;;;;;;5009693;28;20030;-90
2021/05/04 05:36:30;;;;;;;11.63;2.10;;;13.40;76.30;;;;;;5009269;28;20015;-89
2021/05/04 05:38:56;;;;;;;11.90;1.92;;;13.30;75.30;;;;;;5009649;28;20041;-90
2021/05/04 05:41:22;;;;;;;14.00;2.20;;;13.40;75.70;;;;;;5013775;28;20033;-90
2021/05/04 05:43:48;;;;;;;15.35;2.40;;;13.40;76.50;;;;;;5011398;28;20030;-89
2021/05/04 05:46:14;;;;;;;10.82;1.83;;;13.40;76.80;;;;;;5014477;28;20020;-89
2021/05/04 05:48:41;;;;;;;15.30;1.85;;;13.30;76.80;;;;;;5017552;28;20025;-89
2021/05/04 05:51:07;;;;;;;17.00;2.65;;;13.30;77.50;;;;;;5007920;28;20015;-90
2021/05/04 05:53:32;;;;;;;11.43;1.98;;;13.30;77.80;;;;;;5013407;28;20637;-89
2021/05/04 05:55:58;;;;;;;12.68;2.15;;;13.40;78.10;;;;;;5015731;28;20025;-91
2021/05/04 05:58:24;;;;;;;9.75;2.08;;;13.30;78.30;;;;;;5014355;28;20045;-90
2021/05/04 06:00:51;;;;;;;9.63;1.52;;;13.30;79.10;;;;;;5011579;28;20054;-89
2021/05/04 06:03:17;;;;;;;12.32;2.33;;;13.40;79.10;;;;;;4997402;28;20177;-90
2021/05/04 06:05:43;;;;;;;15.50;2.25;;;13.40;80.10;;;;;;4996604;28;20549;-91
2021/05/04 06:08:09;;;;;;;11.05;2.03;;;13.30;80.60;;;;;;5011844;28;20029;-92
2021/05/04 06:10:37;;;;;;;16.75;2.97;;;13.30;80.80;;;;;;5014580;28;20378;-91
2021/05/04 06:13:08;;;;;;;11.73;2.28;;;13.30;80.90;;;;;;5002804;28;20018;-90
2021/05/04 06:15:39;;;;;;;13.88;3.83;;;13.30;81.10;;;;;;5003229;28;20034;-89
2021/05/04 06:18:05;;;;;;;13.30;2.75;;;13.30;81.10;;;;;;4999477;28;20021;-90
2021/05/04 06:20:31;;;;;;;16.25;2.90;;;13.30;81.10;;;;;;5002203;28;20032;-92
2021/05/04 06:22:56;;;;;;;18.42;2.60;;;13.30;81.90;;;;;;5031285;28;20509;-90
2021/05/04 06:25:22;;;;;;;17.98;2.80;;;13.40;82.10;;;;;;5004965;28;20018;-90
2021/05/04 06:27:48;;;;;;;16.23;3.38;;;13.50;81.30;;;;;;4996038;28;20030;-88
2021/05/04 06:30:15;;;;;;;16.52;3.45;;;13.50;81.70;;;;;;5000067;28;20495;-90
2021/05/04 06:32:41;;;;;;;16.13;2.97;;;13.50;81.50;;;;;;4999199;28;20114;-90
2021/05/04 06:35:08;;;;;;;14.60;3.80;;;13.50;81.30;;;;;;5005917;28;20025;-90
2021/05/04 06:37:34;;;;;;;16.05;3.25;;;13.50;81.10;;;;;;5036174;28;20026;-90
2021/05/04 06:40:00;;;;;;;13.77;2.65;;;13.50;81.20;;;;;;5009393;28;20025;-92
2021/05/04 06:42:26;;;;;;;19.67;3.08;;;13.60;81.80;;;;;;4992297;28;20014;-91
2021/05/04 06:44:51;;;;;;;18.63;3.03;;;13.60;81.60;;;;;;5003828;28;20064;-92
2021/05/04 06:47:17;;;;;;;21.38;2.97;;;13.60;81.70;;;;;;5036719;28;20026;-87
2021/05/04 06:49:44;;;;;;;15.05;2.58;;;13.60;81.40;;;;;;5004025;28;20033;-88
2021/05/04 06:52:10;;;;;;;16.88;3.03;;;13.60;81.20;;;;;;5003291;28;20018;-88
2021/05/04 06:54:36;;;;;;;22.10;3.55;;;13.70;81.20;;;;;;5003444;28;20026;-87
2021/05/04 06:57:02;;;;;;;15.77;2.78;;;13.80;81.30;;;;;;5003101;28;20116;-89
2021/05/04 06:59:28;;;;;;;20.98;3.13;;;13.90;81.30;;;;;;5003192;28;20514;-89
2021/05/04 07:01:53;;;;;;;22.95;3.97;;;13.80;80.30;;;;;;5003363;28;20568;-89
2021/05/04 07:04:19;;;;;;;14.23;2.42;;;13.80;80.90;;;;;;5001481;28;20029;-88
2021/05/04 07:06:45;;;;;;;16.85;2.75;;;13.80;81.40;;;;;;5005083;28;20026;-88
2021/05/04 07:09:11;;;;;;;16.70;3.38;;;13.80;81.90;;;;;;4992021;28;20022;-88
2021/05/04 07:11:37;;;;;;;18.23;2.90;;;13.90;81.20;;;;;;4993407;28;20026;-88
2021/05/04 07:14:04;;;;;;;16.73;2.90;;;14.00;80.80;;;;;;5034571;28;20018;-89
2021/05/04 07:16:30;;;;;;;19.23;3.45;;;14.00;81.20;;;;;;5008175;28;20044;-88
2021/05/04 07:18:56;;;;;;;12.77;2.85;;;14.10;81.10;;;;;;5007440;28;20498;-90
2021/05/04 07:21:22;;;;;;;16.00;2.60;;;14.20;80.10;;;;;;5006807;28;20077;-88
2021/05/04 07:23:48;;;;;;;16.80;2.78;;;14.30;79.70;;;;;;5008561;28;20036;-88
2021/05/04 07:26:14;;;;;;;15.85;3.03;;;14.20;79.70;;;;;;4998989;28;20022;-89
2021/05/04 07:28:40;;;;;;;21.50;3.50;;;14.20;79.70;;;;;;4994128;28;20026;-90
2021/05/04 07:31:06;;;;;;;17.40;2.75;;;14.20;79.40;;;;;;4999230;28;20073;-88
2021/05/04 07:33:32;;;;;;;12.57;2.40;;;14.20;78.70;;;;;;4995221;28;20026;-89
2021/05/04 07:35:58;;;;;;;19.48;3.15;;;14.30;78.60;;;;;;4993929;28;20031;-87
2021/05/04 07:38:25;;;;;;;20.58;3.80;;;14.40;79.00;;;;;;4999701;28;20380;-88
2021/05/04 07:40:50;;;;;;;19.45;3.35;;;14.40;79.60;;;;;;4999277;28;20030;-88
2021/05/04 07:43:16;;;;;;;18.45;2.63;;;14.40;79.50;;;;;;4998226;28;20022;-88
2021/05/04 07:45:42;;;;;;;17.15;3.08;;;14.30;79.50;;;;;;5010956;28;20065;-88
2021/05/04 07:48:10;;;;;;;21.27;3.35;;;14.10;80.30;;;;;;5004760;28;20503;-88
2021/05/04 07:50:37;;;;;;;24.52;3.58;;;14.10;80.90;;;;;;5012790;28;20018;-88
2021/05/04 07:53:03;;;;;;;19.63;2.78;;;14.20;80.70;;;;;;5007239;28;20488;-89
2021/05/04 07:55:29;;;;;;;20.60;3.88;;;14.10;80.90;;;;;;5010049;28;20093;-88
2021/05/04 07:57:55;;;;;;;18.85;3.83;;;14.10;81.60;;;;;;5005637;28;20058;-88
2021/05/04 08:00:22;;;;;;;16.13;2.60;;;14.10;81.50;;;;;;5008524;28;20437;-88
2021/05/04 08:02:48;;;;;;;21.52;3.38;;;14.10;81.50;;;;;;5006912;28;20029;-88
2021/05/04 08:05:14;;;;;;;16.40;2.88;;;14.10;82.10;;;;;;5012615;28;20506;-88
2021/05/04 08:07:40;;;;;;;16.88;3.83;;;14.10;82.10;;;;;;5006755;28;20180;-88
2021/05/04 08:10:07;;;;;;;23.05;3.53;;;14.10;82.10;;;;;;5004575;28;20500;-87
2021/05/04 08:12:34;;;;;;;23.77;3.47;;;14.10;82.50;;;;;;5005858;28;20034;-89
2021/05/04 08:15:00;;;;;;;20.63;3.70;;;14.20;83.70;;;;;;5003591;28;20030;-89
2021/05/04 08:17:28;;;;;;;22.20;4.22;;;14.20;84.40;;;;;;5005824;28;20026;-90
2021/05/04 08:19:57;;;;;;;22.45;3.80;;;14.10;85.80;;;;;;5002463;28;20022;-89
2021/05/04 08:22:22;;;;;;;15.60;3.83;;;14.00;87.30;;;;;;5034012;28;20027;-89
2021/05/04 08:24:48;;;;;;;23.10;4.32;;;13.70;90.30;;;;;;5001564;28;20049;-89
2021/05/04 08:27:14;;;;;;;28.88;4.55;;;13.50;91.40;;;;;;5004157;28;20449;-89
2021/05/04 08:29:39;;;;;;;17.00;4.45;;;13.50;91.90;;;;;;4998534;28;20021;-89
2021/05/04 08:32:05;;;;;;;22.10;4.20;;;13.50;91.20;;;;;;5001509;28;20615;-88
2021/05/04 08:34:32;;;;;;;23.20;4.63;;;13.50;91.10;;;;;;4996074;28;20061;-89
2021/05/04 08:36:58;;;;;;;21.15;4.22;;;13.60;91.00;;;;;;5003044;28;20384;-88
2021/05/04 08:39:24;;;;;;;16.38;3.72;;;13.60;90.40;;;;;;4993600;28;20069;-89
2021/05/04 08:41:50;;;;;;;26.75;4.07;;;13.70;90.30;;;;;;4997543;28;20026;-88
2021/05/04 08:44:18;;;;;;;21.80;4.00;;;13.70;89.40;;;;;;5000965;28;20496;-89
2021/05/04 08:46:46;;;;;;;24.92;4.75;;;13.90;88.60;;;;;;5003225;28;20395;-90
2021/05/04 08:49:19;;;;;;;19.35;3.88;;;13.90;88.80;;;;;;5006595;28;20026;-88
2021/05/04 08:51:46;;;;;;;27.92;4.75;;;14.00;88.10;;;;;;5004804;28;20109;-87
2021/05/04 08:54:12;;;;;;;17.65;3.45;;;14.20;87.60;;;;;;5005578;28;20049;-85
2021/05/04 08:56:42;;;;;;;20.23;4.40;;;14.30;86.90;;;;;;5005100;28;20043;-86
2021/05/04 08:59:09;;;;;;;16.92;4.28;;;14.40;86.10;;;;;;5004750;28;20593;-85
2021/05/04 09:01:34;;;;;;;25.75;4.32;;;14.60;85.30;;;;;;5005570;28;20076;-86
2021/05/04 09:04:09;;;;;;;19.25;3.83;;;14.70;85.40;;;;;;5000392;28;20106;-85
2021/05/04 09:06:41;;;;;;;23.02;3.60;;;14.60;85.60;;;;;;4998552;28;20025;-84
2021/05/04 09:09:23;;;;;;;23.50;4.75;;;14.50;85.50;;;;;;5000078;28;20026;-81
2021/05/04 09:21:59;;;;;;;25.50;6.75;;;13.50;93.10;;;;;;5003699;28;20034;-83
2021/05/04 09:24:26;;;;;;;33.88;6.25;;;13.50;93.50;;;;;;4997466;28;20022;-82
2021/05/04 09:27:07;;;;;;;26.42;5.55;;;13.60;92.80;;;;;;5005435;28;20030;-84
2021/05/04 09:29:35;;;;;;;26.08;5.68;;;13.70;92.40;;;;;;5010711;28;20025;-82
2021/05/04 09:32:12;;;;;;;26.38;5.45;;;13.70;92.80;;;;;;5001670;28;20033;-82
2021/05/04 09:34:57;;;;;;;32.25;6.28;;;13.80;93.10;;;;;;5002404;28;20028;-82
2021/05/04 09:37:36;;;;;;;;;;;14.00;92.70;;;;;;5001514;28;20046;-83
2021/05/04 09:40:29;;;;;;;28.08;5.78;;;14.10;92.10;;;;;;5009036;28;19906;-83
2021/05/04 09:43:01;;;;;;;25.30;5.18;;;14.30;91.70;;;;;;4994187;28;20030;-84
2021/05/04 09:45:27;;;;;;;22.50;4.15;;;14.40;91.30;;;;;;5040869;28;20370;-85
2021/05/04 09:48:12;;;;;;;30.13;5.03;;;14.50;90.80;;;;;;4994298;28;20025;-86
2021/05/04 09:50:58;;;;;;;25.45;4.50;;;14.50;90.90;;;;;;5040837;28;20049;-87
2021/05/04 09:56:29;;;;;;;23.23;4.55;;;14.70;90.60;;;;;;4997092;28;20478;-87
2021/05/04 09:58:54;;;;;;;29.95;4.97;;;14.80;90.20;;;;;;5033543;28;20042;-86
2021/05/04 10:01:20;;;;;;;21.38;4.80;;;14.80;90.00;;;;;;5004907;28;20026;-85
2021/05/04 10:03:48;;;;;;;23.13;4.93;;;14.80;90.30;;;;;;5003360;28;20022;-86
2021/05/04 10:06:16;;;;;;;29.20;4.90;;;14.80;90.60;;;;;;5006614;28;20026;-86
2021/05/04 10:08:42;;;;;;;24.40;5.43;;;14.90;90.40;;;;;;4995353;28;20261;-87
2021/05/04 10:11:17;;;;;;;21.73;4.57;;;15.00;90.30;;;;;;4994728;28;20014;-86
2021/05/04 10:13:43;;;;;;;24.65;4.43;;;15.20;88.80;;;;;;4994888;28;20019;-83
2021/05/04 10:16:10;;;;;;;21.30;4.47;;;15.10;88.50;;;;;;4993015;28;20049;-84
2021/05/04 10:18:36;;;;;;;23.77;5.75;;;14.90;88.20;;;;;;4995987;28;20133;-83
2021/05/04 10:21:07;;;;;;;24.92;4.72;;;14.70;90.10;;;;;;5006546;28;20629;-84
2021/05/04 10:23:35;;;;;;;25.55;5.38;;;14.60;90.60;;;;;;4995652;28;20069;-83
2021/05/04 10:26:03;;;;;;;18.75;3.58;;;14.50;91.20;;;;;;5005706;28;20109;-85
2021/05/04 10:28:37;;;;;;;15.20;3.45;;;14.50;91.90;;;;;;5002571;28;20125;-85
2021/05/04 10:31:05;;;;;;;20.90;3.67;;;14.30;92.10;;;;;;5005784;28;20030;-87
2021/05/04 10:33:36;;;;;;;22.77;4.05;;;14.00;92.60;;;;;;5002621;28;20184;-86
2021/05/04 10:36:03;;;;;;;17.27;3.72;;;14.00;93.00;;;;;;5005498;28;20064;-86
2021/05/04 10:38:52;;;;;;;20.35;4.10;;;13.90;93.20;;;;;;5002905;28;20030;-85
2021/05/04 10:41:18;;;;;;;12.38;3.65;;;13.90;93.10;;;;;;4998586;28;20033;-86
2021/05/04 10:43:44;;;;;;;16.88;3.72;;;14.00;93.20;;;;;;4998021;28;20041;-85
2021/05/04 10:46:38;;;;;;;16.80;3.95;;;14.00;93.20;;;;;;5008820;28;20490;-86
2021/05/04 10:49:05;;;;;;;16.23;3.50;;;14.00;92.90;;;;;;5006226;28;20026;-85
2021/05/04 10:51:46;;;;;;;14.98;3.75;;;14.10;92.70;;;;;;5004747;28;20027;-86
2021/05/04 10:54:12;;;;;;;18.75;3.92;;;14.30;92.50;;;;;;5000803;28;20021;-86
2021/05/04 10:56:47;;;;;;;18.75;3.55;;;14.20;92.20;;;;;;5003880;28;20049;-87
2021/05/04 10:59:22;;;;;;;19.10;4.28;;;14.20;92.20;;;;;;4989478;28;20641;-86
2021/05/04 11:02:10;;;;;;;14.80;3.70;;;14.40;91.90;;;;;;5028478;28;20064;-86
2021/05/04 11:04:43;;;;;;;20.92;4.60;;;14.50;91.50;;;;;;5005022;28;20034;-87
2021/05/04 11:07:09;;;;;;;17.35;3.97;;;14.50;91.80;;;;;;4996586;28;20030;-85
2021/05/04 11:09:39;;;;;;;24.85;5.15;;;14.40;92.40;;;;;;5004300;28;20060;-83
2021/05/04 11:12:08;;;;;;;19.33;5.13;;;14.30;92.90;;;;;;5002571;28;20029;-83
2021/05/04 11:14:39;;;;;;;27.65;4.97;;;14.10;93.00;;;;;;4996729;28;20019;-85
2021/05/04 11:17:16;;;;;;;24.58;5.40;;;14.10;93.20;;;;;;5002611;28;20030;-83
2021/05/04 11:19:43;;;;;;;19.33;5.00;;;14.00;93.50;;;;;;5006293;28;20490;-81
2021/05/04 11:22:15;;;;;;;23.35;5.15;;;14.10;93.60;;;;;;5006642;28;20024;-81
2021/05/04 11:24:44;;;;;;;19.30;4.10;;;14.10;93.30;;;;;;5005401;28;20122;-82
2021/05/04 11:27:09;;;;;;;17.10;4.03;;;14.10;92.50;;;;;;5003910;28;20648;-82
2021/05/04 11:29:36;;;;;;;17.60;3.97;;;14.20;92.90;;;;;;5004668;28;20284;-84
2021/05/04 11:32:27;;;;;;;14.23;3.75;;;14.20;92.40;;;;;;5006273;28;20022;-84
2021/05/04 11:34:55;;;;;;;16.83;3.42;;;14.30;91.60;;;;;;5011053;28;20049;-84
2021/05/04 11:37:22;;;;;;;17.60;3.13;;;14.40;91.30;;;;;;5005759;28;20033;-85
2021/05/04 11:39:51;;;;;;;18.02;4.13;;;14.40;90.80;;;;;;5002377;28;20497;-84
2021/05/04 11:42:18;;;;;;;19.48;4.28;;;14.40;91.30;;;;;;5007597;28;20032;-84
2021/05/04 11:44:44;;;;;;;15.15;3.83;;;14.30;91.50;;;;;;4995242;28;20037;-84
2021/05/04 11:47:25;;;;;;;20.52;4.40;;;14.20;91.60;;;;;;4997659;28;20026;-85
2021/05/04 11:50:00;;;;;;;16.77;4.00;;;14.10;92.00;;;;;;5000223;28;20028;-84
2021/05/04 11:52:26;;;;;;;17.85;3.88;;;13.90;92.10;;;;;;5004524;28;20026;-85
2021/05/04 11:55:02;;;;;;;17.60;3.95;;;14.00;92.20;;;;;;4997655;28;20072;-88
2021/05/04 11:57:30;;;;;;;17.67;4.00;;;14.00;92.20;;;;;;4999857;28;20053;-88
2021/05/04 11:59:56;;;;;;;16.48;3.33;;;14.00;92.10;;;;;;5042577;28;20026;-86
2021/05/04 12:02:29;;;;;;;20.95;4.10;;;14.00;92.10;;;;;;5004539;28;20030;-88
2021/05/04 12:04:55;;;;;;;14.30;4.32;;;13.90;92.10;;;;;;5009415;28;20052;-87
2021/05/04 12:07:37;;;;;;;16.13;3.80;;;14.10;92.10;;;;;;5005259;28;20053;-87
2021/05/04 12:10:05;;;;;;;16.10;2.90;;;14.20;91.80;;;;;;5011916;28;20029;-87
2021/05/04 12:12:41;;;;;;;12.52;2.88;;;14.20;91.50;;;;;;4998586;28;20073;-88
2021/05/04 12:15:08;;;;;;;14.65;2.85;;;14.20;91.20;;;;;;5012366;28;20149;-88
2021/05/04 12:17:33;;;;;;;13.77;2.40;;;14.30;91.60;;;;;;5005491;28;20533;-85
2021/05/04 12:20:10;;;;;;;15.57;3.30;;;14.30;91.40;;;;;;5012096;28;20018;-82
2021/05/04 12:22:49;;;;;;;12.73;3.50;;;14.20;92.60;;;;;;5005514;28;20045;-82
2021/05/04 12:25:17;;;;;;;19.83;4.32;;;14.10;93.10;;;;;;5016003;28;20225;-83
2021/05/04 12:27:44;;;;;;;15.80;3.72;;;14.00;94.00;;;;;;5003859;28;20604;-84
2021/05/04 12:30:13;;;;;;;21.33;5.13;;;13.90;94.40;;;;;;5002818;28;20387;-84
2021/05/04 12:32:39;;;;;;;19.88;5.28;;;13.90;94.90;;;;;;5005089;28;20486;-84
2021/05/04 12:35:16;;;;;;;21.35;4.68;;;13.80;94.90;;;;;;5002200;28;20033;-83
2021/05/04 12:37:44;;;;;;;28.13;5.40;;;13.70;95.70;;;;;;5004500;28;20033;-83
2021/05/04 12:40:19;;;;;;;26.90;5.28;;;13.70;96.30;;;;;;5001540;28;20026;-84
2021/05/04 12:42:48;;;;;;;30.35;6.22;;;13.60;96.30;;;;;;5004686;28;20098;-83
2021/05/04 12:45:15;;;;;;;31.65;7.60;;;13.60;96.50;;;;;;5009636;28;20033;-83
2021/05/04 12:47:53;;;;;;;34.92;8.07;;;13.60;96.80;;;;;;5006172;28;20478;-84
2021/05/04 12:50:33;;;;;;;25.15;6.53;;;13.60;97.10;;;;;;4999320;28;20479;-83
2021/05/04 12:53:00;;;;;;;31.35;7.75;;;13.60;97.10;;;;;;5008819;28;20510;-83
2021/05/04 12:55:26;;;;;;;32.53;8.30;;;13.60;97.40;;;;;;5012404;28;20022;-83
2021/05/04 12:58:13;;;;;;;31.95;7.65;;;13.60;97.60;;;;;;5000238;28;20093;-85